createdAt,value
2023-04-01T00:01:51.771Z,94352.84
2023-04-01T00:04:21.530Z,94349.34
2023-04-01T00:06:52.587Z,94349.63
2023-04-01T00:09:22.091Z,94339.19
2023-04-01T00:11:51.539Z,94338.69
2023-04-01T00:14:20.968Z,94341.09
2023-04-01T00:16:51.795Z,94338.69
2023-04-01T00:19:21.368Z,94332.28
2023-04-01T00:21:50.852Z,94352.16
2023-04-01T00:24:20.483Z,94336.91
2023-04-01T00:26:49.975Z,94336.31
2023-04-01T00:29:19.378Z,94344.03
2023-04-01T00:31:50.162Z,94340.38
2023-04-01T00:34:21.476Z,94340.38
2023-04-01T00:36:50.994Z,94337.38
2023-04-01T00:39:20.590Z,94336.31
2023-04-01T00:41:50.450Z,94352.63
2023-04-01T00:44:25.180Z,94346.69
2023-04-01T00:46:54.959Z,94340.31
2023-04-01T00:49:32.369Z,94342.47
2023-04-01T00:52:05.102Z,94337.13
2023-04-01T00:54:36.759Z,94353.41
2023-04-01T00:57:12.276Z,94347.25
2023-04-01T00:59:46.439Z,94343.19
2023-04-01T01:02:17.414Z,94350.94
2023-04-01T01:04:48.698Z,94350.16
2023-04-01T01:07:32.104Z,94341.56
2023-04-01T01:10:10.362Z,94351.00
2023-04-01T01:12:47.523Z,94335.69
2023-04-01T01:15:28.670Z,94347.78
2023-04-01T01:18:22.505Z,94336.28
2023-04-01T01:21:41.324Z,94341.91
2023-04-01T01:24:45.509Z,94325.69
2023-04-01T01:27:18.648Z,94342.78
2023-04-01T01:30:25.874Z,94319.44
2023-04-01T01:33:26.964Z,94316.75
2023-04-01T01:36:00.115Z,94316.75
2023-04-01T01:38:33.739Z,94321.53
2023-04-01T01:41:09.467Z,94329.56
2023-04-01T01:43:44.160Z,94321.28
2023-04-01T01:46:21.499Z,94324.53
2023-04-01T01:48:54.071Z,94325.81
2023-04-01T01:51:25.929Z,94328.75
2023-04-01T01:53:55.690Z,94327.94
2023-04-01T01:56:31.221Z,94337.28
2023-04-01T01:59:05.831Z,94327.66
2023-04-01T02:01:42.275Z,94313.22
2023-04-01T02:04:17.232Z,94318.03
2023-04-01T02:06:55.622Z,94321.72
2023-04-01T02:09:25.356Z,94334.06
2023-04-01T02:11:59.818Z,94318.56
2023-04-01T02:14:39.467Z,94317.75
2023-04-01T02:17:14.208Z,94332.47
2023-04-01T02:19:50.357Z,94307.34
2023-04-01T02:22:26.390Z,94329.03
2023-04-01T02:25:03.004Z,94334.66
2023-04-01T02:27:33.660Z,94337.38
2023-04-01T02:30:03.430Z,94332.00
2023-04-01T02:32:36.214Z,94351.78
2023-04-01T02:35:08.121Z,94348.06
2023-04-01T02:37:42.880Z,94335.22
2023-04-01T02:40:16.463Z,94335.84
2023-04-01T02:42:46.633Z,94337.44
2023-04-01T02:45:16.793Z,94343.63
2023-04-01T02:47:46.537Z,94354.56
2023-04-01T02:50:16.092Z,94341.75
2023-04-01T02:52:46.823Z,94356.44
2023-04-01T02:55:16.465Z,94344.41
2023-04-01T02:57:45.922Z,94345.75
2023-04-01T03:00:18.489Z,94359.38
2023-04-01T03:02:48.045Z,94360.72
2023-04-01T03:05:18.035Z,94356.16
2023-04-01T03:07:48.791Z,94361.53
2023-04-01T03:10:18.712Z,94360.97
2023-04-01T03:12:48.336Z,94360.47
2023-04-01T03:15:18.052Z,94350.88
2023-04-01T03:17:48.212Z,94353.03
2023-04-01T03:20:18.017Z,94350.13
2023-04-01T03:22:48.805Z,94356.03
2023-04-01T03:25:18.353Z,94356.84
2023-04-01T03:27:47.812Z,94366.19
2023-04-01T03:30:17.675Z,94374.22
2023-04-01T03:32:52.904Z,94360.88
2023-04-01T03:35:22.294Z,94377.94
2023-04-01T03:37:55.625Z,94370.22
2023-04-01T03:40:25.215Z,94374.22
2023-04-01T03:42:54.699Z,94361.94
2023-04-01T03:45:24.983Z,94363.28
2023-04-01T03:47:54.680Z,94369.94
2023-04-01T03:50:24.316Z,94372.88
2023-04-01T03:52:55.115Z,94371.56
2023-04-01T03:55:24.624Z,94370.81
2023-04-01T03:57:54.083Z,94368.13
2023-04-01T04:00:23.905Z,94378.84
2023-04-01T04:02:58.057Z,94371.06
2023-04-01T04:05:33.442Z,94373.75
2023-04-01T04:08:05.860Z,94375.56
2023-04-01T04:10:36.689Z,94372.88
2023-04-01T04:13:06.123Z,94370.47
2023-04-01T04:15:41.121Z,94378.28
2023-04-01T04:18:10.577Z,94380.91
2023-04-01T04:20:48.066Z,94379.31
2023-04-01T04:23:19.438Z,94383.59
2023-04-01T04:25:58.585Z,94375.34
2023-04-01T04:28:30.293Z,94388.94
2023-04-01T04:31:01.278Z,94394.50
2023-04-01T04:33:31.036Z,94392.63
2023-04-01T04:36:01.880Z,94383.03
2023-04-01T04:38:33.216Z,94393.44
2023-04-01T04:41:02.612Z,94394.25
2023-04-01T04:43:32.274Z,94403.81
2023-04-01T04:46:08.274Z,94399.50
2023-04-01T04:48:38.466Z,94384.00
2023-04-01T04:51:08.138Z,94397.34
2023-04-01T04:53:39.168Z,94389.00
2023-04-01T04:56:09.132Z,94390.84
2023-04-01T04:59:01.686Z,94386.63
2023-04-01T05:01:43.316Z,94384.22
2023-04-01T05:04:12.837Z,94388.19
2023-04-01T05:06:42.274Z,94399.69
2023-04-01T05:09:13.179Z,94388.16
2023-04-01T05:11:42.956Z,94380.94
2023-04-01T05:14:16.672Z,94383.59
2023-04-01T05:16:51.925Z,94388.97
2023-04-01T05:19:21.872Z,94401.25
2023-04-01T05:21:51.297Z,94388.16
2023-04-01T05:24:22.067Z,94386.00
2023-04-01T05:26:52.886Z,94394.28
2023-04-01T05:29:22.969Z,94392.16
2023-04-01T05:31:58.223Z,94394.81
2023-04-01T05:34:27.591Z,94396.97
2023-04-01T05:36:57.067Z,94398.56
2023-04-01T05:39:27.975Z,94386.25
2023-04-01T05:41:57.437Z,94378.75
2023-04-01T05:44:26.954Z,94398.84
2023-04-01T05:47:06.612Z,94383.31
2023-04-01T05:49:36.490Z,94385.19
2023-04-01T05:52:07.067Z,94383.56
2023-04-01T05:54:39.894Z,94383.31
2023-04-01T05:57:09.288Z,94415.34
2023-04-01T05:59:39.225Z,94395.38
2023-04-01T06:02:10.955Z,94401.25
2023-04-01T06:04:42.452Z,94388.13
2023-04-01T06:07:18.596Z,94392.88
2023-04-01T06:09:49.657Z,94395.81
2023-04-01T06:12:55.690Z,94390.69
2023-04-01T06:15:38.521Z,94375.38
2023-04-01T06:19:04.851Z,94383.84
2023-04-01T06:22:47.937Z,94390.25
2023-04-01T06:25:45.016Z,94403.06
2023-04-01T06:29:02.151Z,94369.03
2023-04-01T06:32:13.533Z,94383.19
2023-04-01T06:35:24.134Z,94404.25
2023-04-01T06:38:44.188Z,94384.34
2023-04-01T06:42:15.906Z,94383.25
2023-04-01T06:45:04.736Z,94401.94
2023-04-01T06:48:20.533Z,94394.09
2023-04-01T06:51:39.920Z,94396.50
2023-04-01T06:54:37.835Z,94404.44
2023-04-01T06:57:45.047Z,94394.28
2023-04-01T07:00:21.929Z,94404.81
2023-04-01T07:03:06.206Z,94405.88
2023-04-01T07:05:37.713Z,94398.81
2023-04-01T07:08:13.803Z,94405.50
2023-04-01T07:10:49.432Z,94395.31
2023-04-01T07:13:46.960Z,94394.47
2023-04-01T07:16:24.120Z,94402.69
2023-04-01T07:19:01.828Z,94393.28
2023-04-01T07:21:49.345Z,94408.31
2023-04-01T07:24:34.235Z,94395.06
2023-04-01T07:27:12.444Z,94408.28
2023-04-01T07:29:44.256Z,94416.63
2023-04-01T07:32:36.193Z,94419.19
2023-04-01T07:35:21.384Z,94417.59
2023-04-01T07:38:12.021Z,94412.59
2023-04-01T07:40:51.467Z,94412.38
2023-04-01T07:43:57.133Z,94427.63
2023-04-01T07:47:05.715Z,94407.28
2023-04-01T07:49:50.896Z,94423.63
2023-04-01T07:52:32.649Z,94421.19
2023-04-01T07:55:17.039Z,94417.19
2023-04-01T07:57:55.897Z,94421.97
2023-04-01T08:00:32.906Z,94421.63
2023-04-01T08:03:36.047Z,94423.47
2023-04-01T08:06:20.691Z,94420.63
2023-04-01T08:09:08.832Z,94422.19
2023-04-01T08:12:19.633Z,94412.69
2023-04-01T08:15:22.226Z,94415.03
2023-04-01T08:18:21.757Z,94409.50
2023-04-01T08:20:59.027Z,94393.63
2023-04-01T08:23:33.824Z,94384.47
2023-04-01T08:26:10.885Z,94396.78
2023-04-01T08:28:53.515Z,94410.72
2023-04-01T08:31:32.455Z,94409.22
2023-04-01T08:34:07.719Z,94382.09
2023-04-01T08:36:43.588Z,94389.41
2023-04-01T08:39:29.624Z,94389.84
2023-04-01T08:42:33.968Z,94386.94
2023-04-01T08:45:31.889Z,94384.84
2023-04-01T08:48:42.213Z,94406.84
2023-04-01T08:52:03.041Z,94408.53
2023-04-01T08:55:28.240Z,94388.06
2023-04-01T08:58:58.903Z,94382.44
2023-04-01T09:02:20.385Z,94382.63
2023-04-01T09:06:00.879Z,94375.09
2023-04-01T09:08:52.860Z,94371.34
2023-04-01T09:11:35.891Z,94373.16
2023-04-01T09:15:22.479Z,94384.03
2023-04-01T09:18:38.856Z,94386.44
2023-04-01T09:21:46.136Z,94392.19
2023-04-01T09:25:17.859Z,94377.06
2023-04-01T09:27:58.274Z,94378.88
2023-04-01T09:30:55.812Z,94371.50
2023-04-01T09:34:27.676Z,94374.78
2023-04-01T09:37:22.793Z,94362.03
2023-04-01T09:40:19.275Z,94366.09
2023-04-01T09:43:23.286Z,94375.69
2023-04-01T09:46:23.084Z,94356.75
2023-04-01T09:49:59.250Z,94372.38
2023-04-01T09:52:39.473Z,94363.44
2023-04-01T09:56:09.554Z,94369.03
2023-04-01T09:59:24.343Z,94361.22
2023-04-01T10:03:50.651Z,94368.09
2023-04-01T10:07:40.835Z,94368.41
2023-04-01T10:11:19.776Z,94362.53
2023-04-01T10:14:31.387Z,94370.41
2023-04-01T10:17:49.561Z,94366.63
2023-04-01T10:21:02.111Z,94365.22
2023-04-01T10:24:16.692Z,94353.25
2023-04-01T10:27:30.512Z,94365.41
2023-04-01T10:31:03.093Z,94367.34
2023-04-01T10:34:44.601Z,94378.47
2023-04-01T10:37:56.021Z,94373.81
2023-04-01T10:40:55.922Z,94380.16
2023-04-01T10:45:09.626Z,94380.56
2023-04-01T10:48:23.747Z,94393.72
2023-04-01T10:51:20.411Z,94393.34
2023-04-01T10:54:22.607Z,94386.88
2023-04-01T10:57:52.252Z,94398.28
2023-04-01T11:01:30.922Z,94381.44
2023-04-01T11:05:24.782Z,94386.13
2023-04-01T11:08:41.336Z,94402.97
2023-04-01T11:12:03.486Z,94410.38
2023-04-01T11:15:43.004Z,94400.28
2023-04-01T11:19:32.513Z,94397.38
2023-04-01T11:22:47.971Z,94417.53
2023-04-01T11:25:42.124Z,94422.66
2023-04-01T11:29:01.643Z,94440.88
2023-04-01T11:31:47.322Z,94419.22
2023-04-01T11:34:57.200Z,94425.13
2023-04-01T11:37:44.945Z,94425.97
2023-04-01T11:40:43.058Z,94415.56
2023-04-01T11:43:39.741Z,94429.13
2023-04-01T11:46:42.541Z,94416.88
2023-04-01T11:49:44.251Z,94409.94
2023-04-01T11:53:04.794Z,94420.44
2023-04-01T11:55:52.984Z,94410.81
2023-04-01T11:59:15.229Z,94407.63
2023-04-01T12:02:02.020Z,94412.47
2023-04-01T12:05:00.849Z,94416.75
2023-04-01T12:08:09.172Z,94404.16
2023-04-01T12:10:48.572Z,94403.88
2023-04-01T12:13:35.568Z,94408.38
2023-04-01T12:16:28.518Z,94420.41
2023-04-01T12:19:07.274Z,94401.97
2023-04-01T12:21:47.171Z,94407.28
2023-04-01T12:24:38.691Z,94409.16
2023-04-01T12:27:46.678Z,94432.63
2023-04-01T12:30:42.099Z,94405.78
2023-04-01T12:33:53.529Z,94416.72
2023-04-01T12:36:56.700Z,94409.94
2023-04-01T12:39:57.549Z,94418.47
2023-04-01T12:43:01.006Z,94405.09
2023-04-01T12:45:33.848Z,94419.25
2023-04-01T12:48:43.031Z,94417.56
2023-04-01T12:51:45.296Z,94429.88
2023-04-01T12:55:17.854Z,94437.47
2023-04-01T12:58:25.067Z,94421.38
2023-04-01T13:01:58.408Z,94426.50
2023-04-01T13:05:21.783Z,94446.59
2023-04-01T13:08:08.909Z,94426.25
2023-04-01T13:11:04.570Z,94429.41
2023-04-01T13:14:35.099Z,94427.31
2023-04-01T13:17:17.677Z,94428.88
2023-04-01T13:20:04.290Z,94433.69
2023-04-01T13:22:59.128Z,94443.13
2023-04-01T13:25:41.611Z,94439.09
2023-04-01T13:28:21.900Z,94436.03
2023-04-01T13:31:04.175Z,94431.78
2023-04-01T13:33:41.685Z,94447.22
2023-04-01T13:36:28.717Z,94432.97
2023-04-01T13:39:27.008Z,94437.97
2023-04-01T13:42:25.858Z,94437.38
2023-04-01T13:45:04.890Z,94441.72
2023-04-01T13:48:25.372Z,94441.19
2023-04-01T13:51:22.888Z,94453.53
2023-04-01T13:54:38.295Z,94434.25
2023-04-01T13:57:45.250Z,94441.72
2023-04-01T14:00:46.768Z,94431.84
2023-04-01T14:03:45.414Z,94419.56
2023-04-01T14:06:30.653Z,94459.94
2023-04-01T14:09:30.584Z,94423.84
2023-04-01T14:12:12.992Z,94449.09
2023-04-01T14:15:22.536Z,94442.06
2023-04-01T14:18:14.939Z,94438.88
2023-04-01T14:20:53.876Z,94441.59
2023-04-01T14:24:08.404Z,94424.03
2023-04-01T14:27:02.795Z,94435.34
2023-04-01T14:29:47.987Z,94441.69
2023-04-01T14:32:34.093Z,94435.53
2023-04-01T14:35:34.131Z,94443.78
2023-04-01T14:38:40.654Z,94447.94
2023-04-01T14:41:23.593Z,94461.00
2023-04-01T14:44:50.612Z,94440.31
2023-04-01T14:47:52.811Z,94451.22
2023-04-01T14:50:26.145Z,94443.16
2023-04-01T14:53:01.946Z,94441.53
2023-04-01T14:55:38.580Z,94441.88
2023-04-01T14:58:15.115Z,94458.22
2023-04-01T15:00:59.813Z,94450.16
2023-04-01T15:03:35.274Z,94447.94
2023-04-01T15:06:51.998Z,94455.31
2023-04-01T15:09:34.296Z,94450.63
2023-04-01T15:12:20.107Z,94449.84
2023-04-01T15:15:18.998Z,94460.09
2023-04-01T15:18:08.406Z,94458.50
2023-04-01T15:21:22.706Z,94463.28
2023-04-01T15:24:05.158Z,94462.50
2023-04-01T15:27:10.023Z,94472.09
2023-04-01T15:30:31.961Z,94479.16
2023-04-01T15:34:04.488Z,94464.22
2023-04-01T15:36:46.097Z,94468.44
2023-04-01T15:39:22.799Z,94468.09
2023-04-01T15:42:27.140Z,94474.66
2023-04-01T15:45:17.428Z,94477.19
2023-04-01T15:47:58.650Z,94472.56
2023-04-01T15:50:57.678Z,94457.88
2023-04-01T15:54:43.332Z,94481.09
2023-04-01T15:57:29.332Z,94475.84
2023-04-01T16:00:29.447Z,94482.06
2023-04-01T16:03:22.144Z,94479.09
2023-04-01T16:06:26.251Z,94474.31
2023-04-01T16:09:19.778Z,94474.31
2023-04-01T16:11:59.128Z,94484.31
2023-04-01T16:14:47.014Z,94487.41
2023-04-01T16:18:08.429Z,94487.13
2023-04-01T16:20:55.965Z,94497.94
2023-04-01T16:23:38.176Z,94489.19
2023-04-01T16:26:17.978Z,94489.97
2023-04-01T16:28:56.680Z,94481.94
2023-04-01T16:31:40.320Z,94489.22
2023-04-01T16:34:19.840Z,94486.78
2023-04-01T16:36:55.786Z,94495.72
2023-04-01T16:39:41.935Z,94485.81
2023-04-01T16:42:33.272Z,94485.22
2023-04-01T16:45:21.440Z,94486.84
2023-04-01T16:47:56.598Z,94498.03
2023-04-01T16:50:33.139Z,94480.09
2023-04-01T16:53:18.453Z,94495.91
2023-04-01T16:55:55.257Z,94501.91
2023-04-01T16:58:29.521Z,94511.31
2023-04-01T17:01:06.665Z,94507.34
2023-04-01T17:03:43.762Z,94502.78
2023-04-01T17:06:32.056Z,94501.00
2023-04-01T17:09:45.384Z,94502.91
2023-04-01T17:12:27.759Z,94503.66
2023-04-01T17:15:06.438Z,94511.91
2023-04-01T17:17:48.754Z,94497.88
2023-04-01T17:20:45.682Z,94505.63
2023-04-01T17:23:27.185Z,94498.06
2023-04-01T17:26:19.012Z,94494.81
2023-04-01T17:28:56.510Z,94503.19
2023-04-01T17:31:47.116Z,94499.94
2023-04-01T17:34:41.163Z,94509.34
2023-04-01T17:37:39.547Z,94508.34
2023-04-01T17:40:39.514Z,94502.94
2023-04-01T17:43:24.770Z,94503.84
2023-04-01T17:45:58.927Z,94514.28
2023-04-01T17:48:44.445Z,94517.25
2023-04-01T17:51:27.390Z,94514.00
2023-04-01T17:54:14.762Z,94513.19
2023-04-01T17:57:03.927Z,94529.81
2023-04-01T17:59:41.186Z,94521.78
2023-04-01T18:02:28.837Z,94534.09
2023-04-01T18:05:55.130Z,94535.13
2023-04-01T18:08:52.302Z,94532.19
2023-04-01T18:11:40.152Z,94539.41
2023-04-01T18:15:09.723Z,94535.69
2023-04-01T18:17:58.549Z,94544.75
2023-04-01T18:20:44.275Z,94557.34
2023-04-01T18:23:28.726Z,94550.91
2023-04-01T18:26:10.694Z,94551.47
2023-04-01T18:28:44.132Z,94557.88
2023-04-01T18:31:21.314Z,94574.06
2023-04-01T18:34:04.936Z,94572.97
2023-04-01T18:36:47.091Z,94566.88
2023-04-01T18:39:25.897Z,94570.31
2023-04-01T18:42:09.782Z,94566.34
2023-04-01T18:44:48.902Z,94571.66
2023-04-01T18:47:38.002Z,94578.69
2023-04-01T18:50:23.397Z,94583.50
2023-04-01T18:52:59.794Z,94581.38
2023-04-01T18:55:43.744Z,94586.72
2023-04-01T18:58:38.484Z,94594.59
2023-04-01T19:01:19.964Z,94596.47
2023-04-01T19:04:23.258Z,94597.56
2023-04-01T19:06:56.657Z,94599.81
2023-04-01T19:09:29.633Z,94594.19
2023-04-01T19:12:32.433Z,94596.41
2023-04-01T19:15:25.038Z,94615.44
2023-04-01T19:18:28.528Z,94619.97
2023-04-01T19:21:10.216Z,94624.06
2023-04-01T19:24:39.531Z,94614.72
2023-04-01T19:27:20.898Z,94625.44
2023-04-01T19:30:23.377Z,94629.75
2023-04-01T19:33:05.828Z,94629.50
2023-04-01T19:35:45.762Z,94624.97
2023-04-01T19:38:29.515Z,94628.94
2023-04-01T19:41:15.048Z,94625.50
2023-04-01T19:43:58.090Z,94623.94
2023-04-01T19:46:35.293Z,94625.81
2023-04-01T19:49:55.823Z,94630.41
2023-04-01T19:52:34.843Z,94635.22
2023-04-01T19:55:24.237Z,94635.75
2023-04-01T19:58:06.432Z,94636.56
2023-04-01T20:00:42.528Z,94638.69
2023-04-01T20:03:28.339Z,94639.28
2023-04-01T20:06:12.854Z,94644.06
2023-04-01T20:08:57.191Z,94644.06
2023-04-01T20:11:56.055Z,94651.06
2023-04-01T20:14:38.437Z,94654.53
2023-04-01T20:17:22.049Z,94656.41
2023-04-01T20:20:01.453Z,94658.56
2023-04-01T20:22:57.946Z,94653.75
2023-04-01T20:25:34.788Z,94654.00
2023-04-01T20:28:14.114Z,94666.84
2023-04-01T20:31:21.504Z,94660.44
2023-04-01T20:34:34.009Z,94654.28
2023-04-01T20:37:27.285Z,94655.88
2023-04-01T20:40:35.406Z,94666.31
2023-04-01T20:43:53.627Z,94663.09
2023-04-01T20:46:31.634Z,94671.66
2023-04-01T20:49:28.937Z,94663.38
2023-04-01T20:52:19.975Z,94665.25
2023-04-01T20:55:26.192Z,94665.25
2023-04-01T20:58:14.656Z,94673.53
2023-04-01T21:01:01.642Z,94675.19
2023-04-01T21:03:49.624Z,94683.72
2023-04-01T21:07:18.011Z,94682.13
2023-04-01T21:10:08.995Z,94681.84
2023-04-01T21:12:50.197Z,94690.16
2023-04-01T21:15:50.519Z,94688.25
2023-04-01T21:19:00.515Z,94696.28
2023-04-01T21:22:03.290Z,94693.38
2023-04-01T21:25:12.573Z,94701.94
2023-04-01T21:28:06.448Z,94710.75
2023-04-01T21:31:02.778Z,94719.31
2023-04-01T21:34:00.293Z,94711.81
2023-04-01T21:36:58.859Z,94708.09
2023-04-01T21:39:56.581Z,94710.75
2023-04-01T21:42:44.655Z,94720.66
2023-04-01T21:45:51.644Z,94710.50
2023-04-01T21:49:09.320Z,94716.63
2023-04-01T21:52:40.482Z,94724.94
2023-04-01T21:55:58.925Z,94727.88
2023-04-01T21:59:17.960Z,94725.22
2023-04-01T22:02:35.150Z,94717.72
2023-04-01T22:05:13.809Z,94725.47
2023-04-01T22:07:51.262Z,94724.69
2023-04-01T22:10:32.139Z,94733.75
2023-04-01T22:13:11.605Z,94734.28
2023-04-01T22:16:03.207Z,94724.66
2023-04-01T22:18:38.112Z,94731.06
2023-04-01T22:21:17.276Z,94737.78
2023-04-01T22:23:54.582Z,94722.78
2023-04-01T22:26:33.337Z,94721.97
2023-04-01T22:29:09.870Z,94725.47
2023-04-01T22:31:48.823Z,94728.94
2023-04-01T22:34:28.980Z,94728.13
2023-04-01T22:37:10.630Z,94730.81
2023-04-01T22:40:05.267Z,94729.75
2023-04-01T22:42:46.051Z,94732.44
2023-04-01T22:45:46.969Z,94738.03
2023-04-01T22:48:23.261Z,94733.50
2023-04-01T22:51:03.040Z,94738.31
2023-04-01T22:53:53.387Z,94738.59
2023-04-01T22:56:29.051Z,94747.69
2023-04-01T22:59:08.789Z,94748.47
2023-04-01T23:01:47.245Z,94751.41
2023-04-01T23:04:24.225Z,94751.69
2023-04-01T23:07:01.625Z,94751.16
2023-04-01T23:09:33.932Z,94764.25
2023-04-01T23:12:08.234Z,94756.25
2023-04-01T23:14:50.166Z,94771.75
2023-04-01T23:17:36.055Z,94768.00
2023-04-01T23:20:34.938Z,94773.63
2023-04-01T23:23:29.140Z,94764.28
2023-04-01T23:26:10.403Z,94770.41
2023-04-01T23:28:53.201Z,94776.03
2023-04-01T23:31:37.650Z,94780.31
2023-04-01T23:34:29.912Z,94777.91
2023-04-01T23:37:05.104Z,94773.34
2023-04-01T23:39:39.312Z,94782.44
2023-04-01T23:42:16.176Z,94784.88
2023-04-01T23:44:45.880Z,94776.31
2023-04-01T23:47:22.755Z,94780.34
2023-04-01T23:49:55.968Z,94785.38
2023-04-01T23:52:27.288Z,94787.81
2023-04-01T23:55:04.229Z,94779.78
2023-04-01T23:57:37.320Z,94787.25
